Big Powderhorn Mountain, Michigan
Current Conditions -  °F | °C
As of 12:55 AM on Thursday 23 Oct 2014 (Local Time) from KIWD Reporting Station
Overcast Overcast  
Wind Chill: 44°   Ceiling: 6500
Heat Index: 48°   Visibility: 10mi
Dew Point: 36°   Wind: 9mph
Humidity: 62%   Direction: 210°SSW
Pressure: 30.05"   Gusts: NA
Location:  46.53°N, 90.1°W
Report Text: KIWD 230555Z AUTO 21008KT 10SM OVC065 09/02 A3005 RMK AO1 10110 20090 401400030 57007
Loading
Personal Weather Stations






























Interactive Weather Map
Tropical Storm Tracking
New forecast layout! Learn more

10-Day Weather Forecast

Advertisements
Track Severe Weather on mobile